createdAt,value
2018-12-28T00:03:55.050Z,35.90
2018-12-28T00:21:37.634Z,35.94
2018-12-28T00:26:54.382Z,35.90
2018-12-28T00:29:24.728Z,35.90
2018-12-28T00:32:06.540Z,35.88
2018-12-28T00:34:36.869Z,35.80
2018-12-28T00:37:07.241Z,35.74
2018-12-28T00:39:37.471Z,35.82
2018-12-28T00:42:07.824Z,35.82
2018-12-28T00:44:38.160Z,35.82
2018-12-28T00:47:08.521Z,35.82
2018-12-28T00:49:38.854Z,35.79
2018-12-28T00:52:09.207Z,35.82
2018-12-28T00:54:39.474Z,35.75
2018-12-28T00:57:09.828Z,35.78
2018-12-28T01:02:44.257Z,35.70
2018-12-28T01:05:14.586Z,35.66
2018-12-28T01:07:44.905Z,35.57
2018-12-28T01:10:15.220Z,35.69
2018-12-28T01:12:45.478Z,35.66
2018-12-28T01:15:15.802Z,35.68
2018-12-28T01:17:46.131Z,35.65
2018-12-28T01:20:16.430Z,35.70
2018-12-28T01:22:46.753Z,35.58
2018-12-28T01:25:17.105Z,35.63
2018-12-28T01:28:06.445Z,35.65
2018-12-28T01:30:36.714Z,35.66
2018-12-28T01:33:07.034Z,35.63
2018-12-28T01:35:37.395Z,35.63
2018-12-28T01:38:26.731Z,35.52
2018-12-28T01:40:57.085Z,35.51
2018-12-28T01:43:27.416Z,35.54
2018-12-28T01:45:57.793Z,35.53
2018-12-28T01:48:28.541Z,35.47
2018-12-28T01:50:58.922Z,35.47
2018-12-28T01:53:29.309Z,35.46
2018-12-28T01:55:59.635Z,35.51
2018-12-28T01:58:29.931Z,35.50
2018-12-28T02:01:00.300Z,35.44
2018-12-28T02:03:30.603Z,35.34
2018-12-28T02:06:00.958Z,35.40
2018-12-28T02:08:31.431Z,35.36
2018-12-28T02:11:01.702Z,35.38
2018-12-28T02:13:31.986Z,35.25
2018-12-28T02:16:02.348Z,35.27
2018-12-28T02:18:32.703Z,35.20
2018-12-28T02:21:02.967Z,35.30
2018-12-28T02:23:33.297Z,35.32
2018-12-28T02:26:03.629Z,35.29
2018-12-28T02:28:33.954Z,35.31
2018-12-28T02:31:04.387Z,35.29
2018-12-28T02:33:34.989Z,35.28
2018-12-28T02:36:05.349Z,35.27
2018-12-28T02:38:35.674Z,35.22
2018-12-28T02:41:06.033Z,35.23
2018-12-28T02:43:36.364Z,35.16
2018-12-28T02:46:06.729Z,35.18
2018-12-28T02:48:37.076Z,35.22
2018-12-28T02:57:41.649Z,35.15
2018-12-28T03:00:11.909Z,35.16
2018-12-28T03:05:53.581Z,35.09
2018-12-28T03:08:23.842Z,35.15
2018-12-28T03:10:54.202Z,35.11
2018-12-28T03:13:24.520Z,35.17
2018-12-28T03:15:54.827Z,35.06
2018-12-28T03:18:25.090Z,35.05
2018-12-28T03:20:55.447Z,35.06
2018-12-28T03:23:25.719Z,35.06
2018-12-28T03:25:56.077Z,35.01
2018-12-28T03:28:26.421Z,35.05
2018-12-28T03:30:56.771Z,35.07
2018-12-28T03:33:27.061Z,35.03
2018-12-28T03:35:57.402Z,35.09
2018-12-28T03:38:27.767Z,35.02
2018-12-28T03:40:58.093Z,34.99
2018-12-28T03:43:28.390Z,34.98
2018-12-28T03:45:58.653Z,34.98
2018-12-28T03:48:28.977Z,35.01
2018-12-28T03:50:59.234Z,34.94
2018-12-28T03:53:29.564Z,35.02
2018-12-28T03:55:59.847Z,35.18
2018-12-28T03:58:30.183Z,35.36
2018-12-28T04:01:00.479Z,35.45
2018-12-28T04:03:30.804Z,35.38
2018-12-28T04:06:01.072Z,35.30
2018-12-28T04:08:31.341Z,35.19
2018-12-28T04:11:01.666Z,35.10
2018-12-28T04:13:32.016Z,34.83
2018-12-28T04:16:02.352Z,34.56
2018-12-28T04:18:32.722Z,34.51
2018-12-28T04:21:03.050Z,34.46
2018-12-28T04:23:33.387Z,34.30
2018-12-28T04:26:03.736Z,34.32
2018-12-28T04:28:34.065Z,34.37
2018-12-28T04:31:04.411Z,34.42
2018-12-28T04:33:34.689Z,34.42
2018-12-28T04:36:04.996Z,34.45
2018-12-28T04:38:35.263Z,34.48
2018-12-28T04:41:05.614Z,34.48
2018-12-28T04:43:35.956Z,34.46
2018-12-28T04:46:06.234Z,34.51
2018-12-28T04:48:36.502Z,34.47
2018-12-28T04:51:06.875Z,34.46
2018-12-28T04:53:55.973Z,34.45
2018-12-28T04:56:26.313Z,34.46
2018-12-28T04:58:56.677Z,34.49
2018-12-28T05:08:17.508Z,34.44
2018-12-28T05:11:10.742Z,34.47
2018-12-28T05:14:19.246Z,34.43
2018-12-28T05:17:08.411Z,34.47
2018-12-28T05:20:01.123Z,34.42
2018-12-28T05:23:09.611Z,34.43
2018-12-28T05:26:17.952Z,34.43
2018-12-28T05:29:20.557Z,34.51
2018-12-28T05:32:12.567Z,34.87
2018-12-28T05:34:43.036Z,35.15
2018-12-28T05:37:13.381Z,35.30
2018-12-28T05:39:43.779Z,35.34
2018-12-28T05:42:14.092Z,35.39
2018-12-28T05:44:44.535Z,35.38
2018-12-28T05:47:14.873Z,35.32
2018-12-28T05:49:45.231Z,35.39
2018-12-28T05:52:15.562Z,35.38
2018-12-28T06:09:37.966Z,34.96
2018-12-28T06:12:08.328Z,35.27
2018-12-28T06:14:38.658Z,35.10
2018-12-28T06:17:09.029Z,34.97
2018-12-28T06:19:39.383Z,34.89
2018-12-28T06:22:10.353Z,34.85
2018-12-28T06:24:40.695Z,34.77
2018-12-28T06:27:11.038Z,34.80
2018-12-28T06:29:41.367Z,34.78
2018-12-28T06:32:11.715Z,34.76
2018-12-28T06:34:42.050Z,34.81
2018-12-28T06:37:12.391Z,34.76
2018-12-28T06:39:42.747Z,34.79
2018-12-28T06:45:27.149Z,34.59
2018-12-28T06:47:57.507Z,34.66
2018-12-28T06:50:28.118Z,34.66
2018-12-28T06:57:17.523Z,34.60
2018-12-28T07:00:30.251Z,34.80
2018-12-28T07:03:38.746Z,34.80
2018-12-28T07:06:47.228Z,34.92
2018-12-28T07:09:55.662Z,34.74
2018-12-28T07:13:04.358Z,34.77
2018-12-28T07:16:12.759Z,34.85
2018-12-28T07:19:21.110Z,35.06
2018-12-28T07:22:29.544Z,35.14
2018-12-28T07:25:37.883Z,35.08
2018-12-28T07:28:34.467Z,35.25
2018-12-28T07:31:42.849Z,35.26
2018-12-28T07:34:51.260Z,35.34
2018-12-28T07:37:59.674Z,35.36
2018-12-28T07:41:08.016Z,35.28
2018-12-28T07:44:05.604Z,35.37
2018-12-28T07:47:14.127Z,35.38
2018-12-28T07:50:22.595Z,35.37
2018-12-28T07:53:30.991Z,35.38
2018-12-28T08:00:02.331Z,35.42
2018-12-28T08:03:10.744Z,35.46
2018-12-28T08:06:19.238Z,35.45
2018-12-28T08:09:16.546Z,35.44
2018-12-28T08:12:24.962Z,35.42
2018-12-28T08:15:33.303Z,35.47
2018-12-28T08:18:30.611Z,35.60
2018-12-28T08:21:39.038Z,35.66
2018-12-28T08:28:01.528Z,35.71
2018-12-28T08:31:31.039Z,35.70
2018-12-28T08:34:41.862Z,35.70
2018-12-28T08:37:54.221Z,35.67
2018-12-28T08:40:54.788Z,35.72
2018-12-28T08:44:24.792Z,35.59
2018-12-28T08:48:01.919Z,35.58
2018-12-28T08:51:52.467Z,35.57
2018-12-28T08:55:24.271Z,35.48
2018-12-28T08:58:45.920Z,35.64
2018-12-28T09:02:29.210Z,35.58
2018-12-28T09:06:13.271Z,35.61
2018-12-28T09:10:00.814Z,35.55
2018-12-28T09:13:36.661Z,35.63
2018-12-28T09:17:15.328Z,35.57
2018-12-28T09:21:14.861Z,35.54
2018-12-28T09:24:50.526Z,35.57
2018-12-28T09:28:17.618Z,35.58
2018-12-28T09:31:48.571Z,35.68
2018-12-28T09:35:53.182Z,35.66
2018-12-28T09:39:20.150Z,35.67
2018-12-28T09:42:49.047Z,35.63
2018-12-28T09:46:18.848Z,35.63
2018-12-28T09:49:57.956Z,35.69
2018-12-28T09:53:28.593Z,35.75
2018-12-28T10:06:50.642Z,35.73
2018-12-28T10:10:21.203Z,35.78
2018-12-28T10:13:46.559Z,35.74
2018-12-28T10:17:18.386Z,35.72
2018-12-28T10:20:39.348Z,35.76
2018-12-28T10:23:55.272Z,35.78
2018-12-28T10:27:09.771Z,35.78
2018-12-28T10:30:05.540Z,35.78
2018-12-28T10:33:11.659Z,35.76
2018-12-28T10:36:13.431Z,35.74
2018-12-28T10:39:30.465Z,35.83
2018-12-28T10:42:44.151Z,35.77
2018-12-28T10:46:13.231Z,35.76
2018-12-28T10:49:24.905Z,35.70
2018-12-28T10:52:39.323Z,35.79
2018-12-28T10:55:53.030Z,35.87
2018-12-28T10:58:55.469Z,35.76
2018-12-28T11:02:18.563Z,35.80
2018-12-28T11:05:34.284Z,35.85
2018-12-28T11:08:51.401Z,35.82
2018-12-28T11:12:10.627Z,35.89
2018-12-28T11:15:32.364Z,36.04
2018-12-28T11:18:37.285Z,35.99
2018-12-28T11:21:49.726Z,35.98
2018-12-28T11:24:58.605Z,35.94
2018-12-28T11:27:59.765Z,35.96
2018-12-28T11:31:20.445Z,35.98
2018-12-28T11:34:32.809Z,36.08
2018-12-28T11:37:38.273Z,36.11
2018-12-28T11:40:51.181Z,36.13
2018-12-28T11:44:00.547Z,36.13
2018-12-28T11:47:19.567Z,36.10
2018-12-28T11:50:30.250Z,36.12
2018-12-28T11:53:43.315Z,36.13
2018-12-28T11:57:03.631Z,36.15
2018-12-28T12:00:14.797Z,36.13
2018-12-28T12:03:29.658Z,36.17
2018-12-28T12:06:52.176Z,36.15
2018-12-28T12:09:56.917Z,36.16
2018-12-28T12:16:51.318Z,36.13
2018-12-28T12:19:37.158Z,36.13
2018-12-28T12:22:43.248Z,36.07
2018-12-28T12:25:59.278Z,36.10
2018-12-28T12:29:08.818Z,36.16
2018-12-28T12:32:23.967Z,36.18
2018-12-28T12:34:57.748Z,36.18
2018-12-28T12:37:41.632Z,36.22
2018-12-28T12:40:24.886Z,36.23
2018-12-28T12:43:16.786Z,36.27
2018-12-28T12:46:01.014Z,36.34
2018-12-28T12:48:58.449Z,36.39
2018-12-28T12:51:31.360Z,36.40
2018-12-28T12:54:01.993Z,36.41
2018-12-28T12:56:32.262Z,36.43
2018-12-28T12:59:02.647Z,35.38
2018-12-28T13:01:36.298Z,34.98
2018-12-28T13:04:05.303Z,35.46
2018-12-28T13:06:35.644Z,35.67
2018-12-28T13:09:08.125Z,35.74
2018-12-28T13:11:38.452Z,35.77
2018-12-28T13:14:08.808Z,35.93
2018-12-28T13:16:39.172Z,35.90
2018-12-28T13:19:09.507Z,35.92
2018-12-28T13:21:39.887Z,35.96
2018-12-28T13:26:59.482Z,36.08
2018-12-28T13:29:48.878Z,36.04
2018-12-28T13:32:19.178Z,36.05
2018-12-28T13:34:49.510Z,36.09
2018-12-28T13:37:19.871Z,36.19
2018-12-28T13:39:50.213Z,36.07
2018-12-28T13:42:22.418Z,35.97
2018-12-28T13:48:14.168Z,35.95
2018-12-28T13:50:44.543Z,35.99
2018-12-28T13:53:14.905Z,36.02
2018-12-28T13:55:45.263Z,36.03
2018-12-28T13:58:15.638Z,36.01
2018-12-28T14:00:46.020Z,36.02
2018-12-28T14:03:16.422Z,36.03
2018-12-28T14:05:48.827Z,36.02
2018-12-28T14:08:19.149Z,36.07
2018-12-28T14:10:49.542Z,36.12
2018-12-28T14:13:19.819Z,36.07
2018-12-28T14:15:50.163Z,36.06
2018-12-28T14:18:20.475Z,36.07
2018-12-28T14:20:50.799Z,36.07
2018-12-28T14:23:21.140Z,36.05
2018-12-28T14:25:51.482Z,36.06
2018-12-28T14:28:21.847Z,36.08
2018-12-28T14:30:52.206Z,36.03
2018-12-28T14:33:22.546Z,36.12
2018-12-28T14:35:52.907Z,36.15
2018-12-28T14:38:24.186Z,36.23
2018-12-28T14:40:54.524Z,36.25
2018-12-28T14:43:24.917Z,36.23
2018-12-28T14:45:55.266Z,36.17
2018-12-28T14:48:26.674Z,36.06
2018-12-28T14:51:16.616Z,36.08
2018-12-28T14:53:47.031Z,36.15
2018-12-28T14:56:19.027Z,36.13
2018-12-28T14:58:49.734Z,36.10
2018-12-28T15:04:16.737Z,36.15
2018-12-28T15:06:47.094Z,36.21
2018-12-28T15:09:17.656Z,36.15
2018-12-28T15:11:48.073Z,36.10
2018-12-28T15:14:34.121Z,36.15
2018-12-28T15:17:04.455Z,36.23
2018-12-28T15:19:35.829Z,36.08
2018-12-28T15:22:07.559Z,36.27
2018-12-28T15:24:37.928Z,36.24
2018-12-28T15:27:08.251Z,36.19
2018-12-28T15:29:38.617Z,36.17
2018-12-28T15:32:08.983Z,36.14
2018-12-28T15:34:39.346Z,36.19
2018-12-28T15:37:09.691Z,36.11
2018-12-28T15:39:40.037Z,36.07
2018-12-28T15:42:10.330Z,36.06
2018-12-28T15:44:40.671Z,36.10
2018-12-28T15:47:11.050Z,36.06
2018-12-28T15:49:41.405Z,36.00
2018-12-28T15:52:11.668Z,36.09
2018-12-28T15:54:44.179Z,36.06
2018-12-28T15:57:14.511Z,36.20
2018-12-28T15:59:44.871Z,36.14
2018-12-28T16:02:15.243Z,36.11
2018-12-28T16:04:45.623Z,36.05
2018-12-28T16:07:15.960Z,36.18
2018-12-28T16:12:59.750Z,36.02
2018-12-28T16:15:30.097Z,36.01
2018-12-28T16:18:00.443Z,36.02
2018-12-28T16:20:30.739Z,36.03
2018-12-28T16:23:12.883Z,36.01
2018-12-28T16:25:43.229Z,36.00
2018-12-28T16:28:13.581Z,35.98
2018-12-28T16:30:43.942Z,36.01
2018-12-28T16:33:26.357Z,35.99
2018-12-28T16:35:57.012Z,36.03
2018-12-28T16:41:21.885Z,35.86
2018-12-28T16:43:52.268Z,35.41
2018-12-28T16:46:22.610Z,35.20
2018-12-28T16:48:52.915Z,35.54
2018-12-28T16:51:23.208Z,34.97
2018-12-28T16:53:53.942Z,33.95
2018-12-28T16:56:24.310Z,34.00
2018-12-28T17:01:56.783Z,34.20
2018-12-28T17:04:27.094Z,33.82
2018-12-28T17:07:16.498Z,33.91
2018-12-28T17:09:46.851Z,34.49
2018-12-28T17:12:17.239Z,34.62
2018-12-28T17:14:47.611Z,34.53
2018-12-28T17:17:17.967Z,34.62
2018-12-28T17:19:48.307Z,34.72
2018-12-28T17:22:18.658Z,34.60
2018-12-28T17:24:49.114Z,34.25
2018-12-28T17:27:19.455Z,34.29
2018-12-28T17:29:49.850Z,34.43
2018-12-28T17:32:20.273Z,34.43
2018-12-28T17:34:51.039Z,34.40
2018-12-28T17:37:40.903Z,34.46
2018-12-28T17:40:11.843Z,34.49
2018-12-28T17:42:42.342Z,34.44
2018-12-28T17:45:12.688Z,34.42
2018-12-28T17:47:44.157Z,34.46
2018-12-28T17:50:14.817Z,34.36
2018-12-28T17:52:45.121Z,34.42
2018-12-28T17:55:35.118Z,34.69
2018-12-28T17:58:05.760Z,34.74
2018-12-28T18:00:55.440Z,34.66
2018-12-28T18:03:46.477Z,34.56
2018-12-28T18:06:17.677Z,34.61
2018-12-28T18:08:48.122Z,34.72
2018-12-28T18:11:18.691Z,34.76
2018-12-28T18:13:49.670Z,34.78
2018-12-28T18:16:20.474Z,34.82
2018-12-28T18:18:51.190Z,34.85
2018-12-28T18:24:12.442Z,34.92
2018-12-28T18:26:42.811Z,34.92
2018-12-28T18:29:13.206Z,34.96
2018-12-28T18:31:43.554Z,34.93
2018-12-28T18:34:13.854Z,34.77
2018-12-28T18:36:44.344Z,34.77
2018-12-28T18:39:14.703Z,34.82
2018-12-28T18:41:45.202Z,34.86
2018-12-28T18:44:15.681Z,34.89
2018-12-28T18:46:46.303Z,34.94
2018-12-28T18:49:19.707Z,34.94
2018-12-28T18:51:50.602Z,34.98
2018-12-28T18:54:21.015Z,35.00
2018-12-28T18:56:53.473Z,35.07
2018-12-28T18:59:23.947Z,35.11
2018-12-28T19:01:54.312Z,35.08
2018-12-28T19:07:38.158Z,35.29
2018-12-28T19:10:08.561Z,35.47
2018-12-28T19:12:50.619Z,35.45
2018-12-28T19:15:20.894Z,35.48
2018-12-28T19:17:51.297Z,35.50
2018-12-28T19:20:21.689Z,35.52
2018-12-28T19:23:03.680Z,35.54
2018-12-28T19:25:34.031Z,35.56
2018-12-28T19:28:04.355Z,35.57
2018-12-28T19:30:34.635Z,35.53
2018-12-28T19:48:17.862Z,35.76
2018-12-28T19:50:48.236Z,35.81
2018-12-28T19:53:18.576Z,35.82
2018-12-28T19:55:49.008Z,35.86
2018-12-28T19:58:38.452Z,35.92
2018-12-28T20:01:08.962Z,35.99
2018-12-28T20:03:39.312Z,36.08
2018-12-28T20:06:09.712Z,36.18
2018-12-28T20:08:40.084Z,36.22
2018-12-28T20:11:10.435Z,36.28
2018-12-28T20:13:40.918Z,36.29
2018-12-28T20:16:15.059Z,36.34
2018-12-28T20:18:45.422Z,36.40
2018-12-28T20:21:15.794Z,36.37
2018-12-28T20:23:46.245Z,36.23
2018-12-28T20:26:16.588Z,36.24
2018-12-28T20:28:46.962Z,36.24
2018-12-28T20:31:17.321Z,36.21
2018-12-28T20:33:47.616Z,36.18
2018-12-28T20:36:18.366Z,36.16
2018-12-28T20:39:07.831Z,36.20
2018-12-28T20:41:38.160Z,36.19
2018-12-28T20:44:27.578Z,36.14
2018-12-28T20:46:57.875Z,36.15
2018-12-28T20:49:28.277Z,36.16
2018-12-28T20:51:58.719Z,36.16
2018-12-28T20:54:28.983Z,36.17
2018-12-28T20:56:59.331Z,36.16
2018-12-28T20:59:29.674Z,36.16
2018-12-28T21:02:00.132Z,36.14
2018-12-28T21:04:30.523Z,36.13
2018-12-28T21:07:00.856Z,36.13
2018-12-28T21:09:31.207Z,36.24
2018-12-28T21:12:01.596Z,36.33
2018-12-28T21:14:31.970Z,36.28
2018-12-28T21:19:51.569Z,36.12
2018-12-28T21:22:21.921Z,36.09
2018-12-28T21:24:52.293Z,36.04
2018-12-28T21:27:22.672Z,36.00
2018-12-28T21:29:53.031Z,36.07
2018-12-28T21:32:23.356Z,36.07
2018-12-28T21:34:53.722Z,36.07
2018-12-28T21:37:24.107Z,36.36
2018-12-28T21:39:54.447Z,36.19
2018-12-28T21:42:24.881Z,36.21
2018-12-28T21:44:55.548Z,36.22
2018-12-28T21:47:26.739Z,36.17
2018-12-28T21:49:57.084Z,36.15
2018-12-28T21:52:27.446Z,36.13
2018-12-28T21:54:58.183Z,36.10
2018-12-28T21:57:28.543Z,36.11
2018-12-28T21:59:58.802Z,36.18
2018-12-28T22:02:29.176Z,36.22
2018-12-28T22:04:59.589Z,36.21
2018-12-28T22:07:29.898Z,36.50
2018-12-28T22:16:11.700Z,37.10
2018-12-28T22:18:42.092Z,37.17
2018-12-28T22:24:01.716Z,37.21
2018-12-28T22:26:32.002Z,37.18
2018-12-28T22:29:02.309Z,37.18
2018-12-28T22:31:32.662Z,37.26
2018-12-28T22:34:03.041Z,37.28
2018-12-28T22:36:33.418Z,37.38
2018-12-28T22:42:27.129Z,37.43
2018-12-28T22:44:57.504Z,37.48
2018-12-28T22:47:27.859Z,37.50
2018-12-28T22:49:58.172Z,37.51
2018-12-28T22:52:28.534Z,37.54
2018-12-28T22:54:58.869Z,37.56
2018-12-28T22:57:29.167Z,37.56
2018-12-28T23:03:12.417Z,37.56
2018-12-28T23:05:42.717Z,37.62
2018-12-28T23:08:12.992Z,37.63
2018-12-28T23:10:43.290Z,37.66
2018-12-28T23:13:13.724Z,37.67
2018-12-28T23:15:44.078Z,37.69
2018-12-28T23:18:14.434Z,37.67
2018-12-28T23:20:44.799Z,37.69
2018-12-28T23:23:15.159Z,37.68
2018-12-28T23:25:45.503Z,37.70
2018-12-28T23:28:15.864Z,37.71
2018-12-28T23:36:39.719Z,37.77
2018-12-28T23:39:10.063Z,37.79
2018-12-28T23:41:40.339Z,37.79
2018-12-28T23:44:10.623Z,37.80
2018-12-28T23:46:40.972Z,37.77
2018-12-28T23:49:11.312Z,37.82
2018-12-28T23:51:41.597Z,37.84
2018-12-28T23:54:13.482Z,37.80
2018-12-28T23:56:43.809Z,37.82
2018-12-28T23:59:14.168Z,37.82
